Time;durP1;ratioP1;P1;durP2;ratioP2;P2;SDS_P1;SDS_P2;PMS_P1;PMS_P2;Temp;Humidity;BMP_temperature;BMP_pressure;BME280_temperature;BME280_humidity;BME280_pressure;Samples;Min_cycle;Max_cycle;Signal;HPM_P1;HPM_P2
2022/09/18 00:00:12;;;;;;;1999.90;999.90;;;;;;;;;;4990723;28;20229;-74
2022/09/18 00:02:39;;;;;;;1999.90;999.90;;;;;;;;;;5005600;28;20324;-74
2022/09/18 00:05:09;;;;;;;1999.90;999.90;;;;;;;;;;4991626;28;20621;-73
2022/09/18 00:07:36;;;;;;;1999.90;999.90;;;;;;;;;;5008577;28;20273;-73
2022/09/18 00:10:06;;;;;;;1999.90;999.90;;;;;;;;;;5006832;28;20233;-73
2022/09/18 00:12:34;;;;;;;1999.90;999.90;;;;;;;;;;5024784;28;20230;-74
2022/09/18 00:15:02;;;;;;;1999.90;999.90;;;;;;;;;;5006523;28;21005;-73
2022/09/18 00:17:30;;;;;;;1999.90;999.90;;;;;;;;;;5004961;28;20248;-73
2022/09/18 00:19:57;;;;;;;1999.90;999.90;;;;;;;;;;5003686;28;20241;-73
2022/09/18 00:22:25;;;;;;;1999.90;999.90;;;;;;;;;;5020508;28;20285;-73
2022/09/18 00:24:53;;;;;;;1999.90;999.90;;;;;;;;;;5003192;28;20230;-73
2022/09/18 00:27:22;;;;;;;1999.90;999.90;;;;;;;;;;5002225;28;20988;-73
2022/09/18 00:29:50;;;;;;;1999.90;999.90;;;;;;;;;;5017666;28;20287;-74
2022/09/18 00:32:17;;;;;;;1999.90;999.90;;;;;;;;;;5004198;28;20237;-73
2022/09/18 00:34:45;;;;;;;1999.90;999.90;;;;;;;;;;5004329;28;20229;-74
2022/09/18 00:37:13;;;;;;;1999.90;999.90;;;;;;;;;;5005535;28;20324;-74
2022/09/18 00:39:41;;;;;;;1999.90;999.90;;;;;;;;;;5004218;28;20229;-73
2022/09/18 00:42:11;;;;;;;1999.90;999.90;;;;;;;;;;5020200;28;20296;-73
2022/09/18 00:44:41;;;;;;;1999.90;999.90;;;;;;;;;;5005204;28;21630;-74
2022/09/18 00:47:27;;;;;;;1999.90;999.90;;;;;;;;;;5019501;28;20515;-74
2022/09/18 00:50:01;;;;;;;1999.90;999.90;;;;;;;;;;5002765;28;21989;-74
2022/09/18 00:52:32;;;;;;;1999.90;999.90;;;;;;;;;;5004511;28;20404;-74
2022/09/18 00:55:02;;;;;;;1999.90;999.90;;;;;;;;;;5002036;28;20400;-73
2022/09/18 00:57:31;;;;;;;1999.90;999.90;;;;;;;;;;5002099;28;20504;-74
2022/09/18 01:00:02;;;;;;;1999.90;999.90;;;;;;;;;;5002016;28;20404;-74
2022/09/18 01:02:30;;;;;;;1999.90;999.90;;;;;;;;;;5006008;28;20403;-75
2022/09/18 01:04:58;;;;;;;1999.90;999.90;;;;;;;;;;5019537;28;20403;-74
2022/09/18 01:07:31;;;;;;;1999.90;999.90;;;;;;;;;;5004897;28;20419;-74
2022/09/18 01:10:03;;;;;;;1999.90;999.90;;;;;;;;;;5002756;28;20926;-74
2022/09/18 01:12:34;;;;;;;1999.90;999.90;;;;;;;;;;5017419;28;21277;-73
2022/09/18 01:15:05;;;;;;;1999.90;999.90;;;;;;;;;;5003752;28;20404;-73
2022/09/18 01:17:36;;;;;;;1999.90;999.90;;;;;;;;;;5002909;28;20462;-73
2022/09/18 01:20:16;;;;;;;1999.90;999.90;;;;;;;;;;4984375;28;20399;-72
2022/09/18 01:22:51;;;;;;;1999.90;999.90;;;;;;;;;;4982755;28;20234;-73
2022/09/18 01:25:22;;;;;;;1999.90;999.90;;;;;;;;;;4984269;28;20411;-73
2022/09/18 01:27:57;;;;;;;1999.90;999.90;;;;;;;;;;5002036;28;20506;-72
2022/09/18 01:30:24;;;;;;;1999.90;999.90;;;;;;;;;;5002935;28;20407;-73
2022/09/18 01:32:54;;;;;;;1999.90;999.90;;;;;;;;;;5017748;28;20508;-73
2022/09/18 01:35:25;;;;;;;1999.90;999.90;;;;;;;;;;5005697;28;21045;-74
2022/09/18 01:38:13;;;;;;;1999.90;999.90;;;;;;;;;;5016013;28;20265;-73
2022/09/18 01:40:44;;;;;;;1999.90;999.90;;;;;;;;;;4989249;28;20230;-73
2022/09/18 01:43:15;;;;;;;1999.90;999.90;;;;;;;;;;5005041;28;20289;-73
2022/09/18 01:45:44;;;;;;;1999.90;999.90;;;;;;;;;;4990062;28;20230;-74
2022/09/18 01:48:18;;;;;;;1999.90;999.90;;;;;;;;;;5004265;28;20221;-72
2022/09/18 01:50:49;;;;;;;1999.90;999.90;;;;;;;;;;5004106;28;20242;-73
2022/09/18 01:53:19;;;;;;;1999.90;999.90;;;;;;;;;;5020514;28;20236;-73
2022/09/18 01:55:49;;;;;;;1999.90;999.90;;;;;;;;;;4996370;28;20226;-73
2022/09/18 01:58:21;;;;;;;1999.90;999.90;;;;;;;;;;5006195;28;20340;-73
2022/09/18 02:00:51;;;;;;;1999.90;999.90;;;;;;;;;;5005410;28;20261;-74
2022/09/18 02:03:22;;;;;;;1999.90;999.90;;;;;;;;;;4989064;28;20357;-75
2022/09/18 02:05:51;;;;;;;1999.90;999.90;;;;;;;;;;5024385;28;20284;-75
2022/09/18 02:08:22;;;;;;;1999.90;999.90;;;;;;;;;;4993564;28;20971;-74
2022/09/18 02:10:57;;;;;;;1999.90;999.90;;;;;;;;;;5009190;28;20230;-74
2022/09/18 02:13:30;;;;;;;1999.90;999.90;;;;;;;;;;5007427;28;20222;-74
2022/09/18 02:16:00;;;;;;;1999.90;999.90;;;;;;;;;;5022051;28;20809;-74
2022/09/18 02:18:31;;;;;;;1999.90;999.90;;;;;;;;;;5007636;28;20329;-74
2022/09/18 02:21:00;;;;;;;1999.90;999.90;;;;;;;;;;5005016;28;21035;-74
2022/09/18 02:23:29;;;;;;;1999.90;999.90;;;;;;;;;;5020838;28;20345;-74
2022/09/18 02:26:00;;;;;;;1999.90;999.90;;;;;;;;;;5006909;28;20741;-73
2022/09/18 02:28:31;;;;;;;1999.90;999.90;;;;;;;;;;5005371;28;20237;-73
2022/09/18 02:31:00;;;;;;;1999.90;999.90;;;;;;;;;;4987615;28;20269;-73
2022/09/18 02:33:29;;;;;;;1999.90;999.90;;;;;;;;;;5005234;28;20222;-73
2022/09/18 02:36:11;;;;;;;1999.90;999.90;;;;;;;;;;4990169;28;20709;-72
2022/09/18 02:38:43;;;;;;;1999.90;999.90;;;;;;;;;;5003392;28;20238;-73
2022/09/18 02:41:15;;;;;;;1999.90;999.90;;;;;;;;;;4988870;28;20289;-73
2022/09/18 02:43:47;;;;;;;1999.90;999.90;;;;;;;;;;5006268;28;20229;-74
2022/09/18 02:46:21;;;;;;;1999.90;999.90;;;;;;;;;;5006872;28;20776;-73
2022/09/18 02:48:56;;;;;;;1999.90;999.90;;;;;;;;;;5001956;28;20535;-73
2022/09/18 02:51:28;;;;;;;1999.90;999.90;;;;;;;;;;4987825;28;20474;-73
2022/09/18 02:53:58;;;;;;;1999.90;999.90;;;;;;;;;;5005288;28;20266;-74
2022/09/18 02:56:31;;;;;;;1999.90;999.90;;;;;;;;;;4990737;28;20254;-73
2022/09/18 02:59:05;;;;;;;1999.90;999.90;;;;;;;;;;5021466;28;20350;-73
2022/09/18 03:01:34;;;;;;;1999.90;999.90;;;;;;;;;;4984931;28;20233;-73
2022/09/18 03:04:03;;;;;;;1999.90;999.90;;;;;;;;;;5003720;28;20726;-74
2022/09/18 03:06:43;;;;;;;1999.90;999.90;;;;;;;;;;4982104;28;20214;-73
2022/09/18 03:09:11;;;;;;;1999.90;999.90;;;;;;;;;;5018205;28;20222;-73
2022/09/18 03:11:39;;;;;;;1999.90;999.90;;;;;;;;;;5002573;28;20241;-73
2022/09/18 03:14:08;;;;;;;1999.90;999.90;;;;;;;;;;5003503;28;20257;-73
2022/09/18 03:16:36;;;;;;;1999.90;999.90;;;;;;;;;;5005414;28;20289;-73
2022/09/18 03:19:04;;;;;;;1999.90;999.90;;;;;;;;;;5017914;28;20248;-73
2022/09/18 03:21:32;;;;;;;1999.90;999.90;;;;;;;;;;4988401;28;20312;-74
2022/09/18 03:24:01;;;;;;;1999.90;999.90;;;;;;;;;;4988628;28;20362;-73
2022/09/18 03:26:33;;;;;;;1999.90;999.90;;;;;;;;;;5005471;28;20230;-74
2022/09/18 03:29:01;;;;;;;1999.90;999.90;;;;;;;;;;5003750;28;20923;-74
2022/09/18 03:31:32;;;;;;;1999.90;999.90;;;;;;;;;;5023440;28;20234;-74
2022/09/18 03:34:00;;;;;;;1999.90;999.90;;;;;;;;;;5005333;28;20252;-74
2022/09/18 03:36:28;;;;;;;1999.90;999.90;;;;;;;;;;5021820;28;20334;-73
2022/09/18 03:38:58;;;;;;;1999.90;999.90;;;;;;;;;;4987222;28;20300;-73
2022/09/18 03:41:26;;;;;;;1999.90;999.90;;;;;;;;;;5020653;28;20244;-72
2022/09/18 03:43:56;;;;;;;1999.90;999.90;;;;;;;;;;5019124;28;20237;-74
2022/09/18 03:46:24;;;;;;;1999.90;999.90;;;;;;;;;;4988719;28;20264;-74
2022/09/18 03:48:58;;;;;;;1999.90;999.90;;;;;;;;;;4987360;28;20253;-74
2022/09/18 03:51:28;;;;;;;1999.90;999.90;;;;;;;;;;5020996;28;21075;-74
2022/09/18 03:53:56;;;;;;;1999.90;999.90;;;;;;;;;;4989470;28;20265;-74
2022/09/18 03:56:55;;;;;;;1999.90;999.90;;;;;;;;;;5001187;28;20308;-74
2022/09/18 03:59:37;;;;;;;1999.90;999.90;;;;;;;;;;4988152;28;20250;-74
2022/09/18 04:02:25;;;;;;;1999.90;999.90;;;;;;;;;;4997031;28;20230;-73
2022/09/18 04:05:14;;;;;;;1999.90;999.90;;;;;;;;;;5004848;28;20226;-74
2022/09/18 04:08:00;;;;;;;1999.90;999.90;;;;;;;;;;5005473;28;20293;-74
2022/09/18 04:11:04;;;;;;;1999.90;999.90;;;;;;;;;;5002625;28;20308;-74
2022/09/18 04:13:34;;;;;;;1999.90;999.90;;;;;;;;;;4988151;28;20317;-74
2022/09/18 04:16:06;;;;;;;1999.90;999.90;;;;;;;;;;5020627;28;20233;-73
2022/09/18 04:18:34;;;;;;;1999.90;999.90;;;;;;;;;;5004046;28;20795;-72
2022/09/18 04:21:04;;;;;;;1999.90;999.90;;;;;;;;;;5005889;28;20234;-73
2022/09/18 04:23:32;;;;;;;1999.90;999.90;;;;;;;;;;4986486;28;20238;-74
2022/09/18 04:26:02;;;;;;;1999.90;999.90;;;;;;;;;;5002392;28;20230;-74
2022/09/18 04:28:31;;;;;;;1999.90;999.90;;;;;;;;;;5020252;28;20229;-73
2022/09/18 04:30:58;;;;;;;1999.90;999.90;;;;;;;;;;5005433;28;20234;-73
2022/09/18 04:33:26;;;;;;;1999.90;999.90;;;;;;;;;;5019763;28;20225;-74
2022/09/18 04:35:55;;;;;;;1999.90;999.90;;;;;;;;;;5021723;28;20232;-74
2022/09/18 04:38:27;;;;;;;1999.90;999.90;;;;;;;;;;5006443;28;20249;-73
2022/09/18 04:40:56;;;;;;;1999.90;999.90;;;;;;;;;;5004826;28;20229;-73
2022/09/18 04:43:25;;;;;;;1999.90;999.90;;;;;;;;;;5019132;28;20234;-74
2022/09/18 04:45:52;;;;;;;1999.90;999.90;;;;;;;;;;4986676;28;20229;-73
2022/09/18 04:48:21;;;;;;;1999.90;999.90;;;;;;;;;;5004623;28;20747;-74
2022/09/18 04:50:49;;;;;;;1999.90;999.90;;;;;;;;;;4986675;28;20230;-75
2022/09/18 04:53:17;;;;;;;1999.90;999.90;;;;;;;;;;4984430;28;20241;-74
2022/09/18 04:55:47;;;;;;;1999.90;999.90;;;;;;;;;;4986262;28;20327;-74
2022/09/18 04:58:17;;;;;;;1999.90;999.90;;;;;;;;;;5005182;28;21009;-74
2022/09/18 05:00:48;;;;;;;1999.90;999.90;;;;;;;;;;4989441;28;20234;-74
2022/09/18 05:03:18;;;;;;;1999.90;999.90;;;;;;;;;;5002403;28;20236;-74
2022/09/18 05:05:47;;;;;;;1999.90;999.90;;;;;;;;;;5018578;28;20712;-73
2022/09/18 05:08:16;;;;;;;1999.90;999.90;;;;;;;;;;4997326;28;20222;-74
2022/09/18 05:10:44;;;;;;;1999.90;999.90;;;;;;;;;;4988533;28;20233;-74
2022/09/18 05:13:14;;;;;;;1999.90;999.90;;;;;;;;;;4987587;28;20313;-74
2022/09/18 05:15:55;;;;;;;1999.90;999.90;;;;;;;;;;5004129;28;20746;-74
2022/09/18 05:18:24;;;;;;;1999.90;999.90;;;;;;;;;;5020967;28;20360;-74
2022/09/18 05:20:54;;;;;;;1999.90;999.90;;;;;;;;;;5005748;28;20367;-74
2022/09/18 05:23:22;;;;;;;1999.90;999.90;;;;;;;;;;5004460;28;20233;-74
2022/09/18 05:25:50;;;;;;;1999.90;999.90;;;;;;;;;;5005777;28;20229;-73
2022/09/18 05:28:19;;;;;;;1999.90;999.90;;;;;;;;;;5005888;28;20230;-74
2022/09/18 05:30:49;;;;;;;1999.90;999.90;;;;;;;;;;5006416;28;20304;-75
2022/09/18 05:33:17;;;;;;;1999.90;999.90;;;;;;;;;;5020773;28;20265;-74
2022/09/18 05:35:45;;;;;;;1999.90;999.90;;;;;;;;;;5004014;28;20316;-73
2022/09/18 05:38:13;;;;;;;1999.90;999.90;;;;;;;;;;5004818;28;20232;-75
2022/09/18 05:40:44;;;;;;;1999.90;999.90;;;;;;;;;;5018264;28;20815;-74
2022/09/18 05:43:12;;;;;;;1999.90;999.90;;;;;;;;;;5002644;28;20753;-74
2022/09/18 05:45:41;;;;;;;1999.90;999.90;;;;;;;;;;5003475;28;20342;-75
2022/09/18 05:48:17;;;;;;;1999.90;999.90;;;;;;;;;;5003020;28;20234;-74
2022/09/18 05:50:45;;;;;;;1999.90;999.90;;;;;;;;;;5022636;28;20277;-74
2022/09/18 05:53:16;;;;;;;1999.90;999.90;;;;;;;;;;4996612;28;20234;-74
2022/09/18 05:56:02;;;;;;;1999.90;999.90;;;;;;;;;;4996526;28;20237;-74
2022/09/18 05:58:31;;;;;;;1999.90;999.90;;;;;;;;;;4998441;28;20356;-73
2022/09/18 06:01:03;;;;;;;1999.90;999.90;;;;;;;;;;4981403;28;20235;-73
2022/09/18 06:03:51;;;;;;;1999.90;999.90;;;;;;;;;;4965826;28;20277;-73
2022/09/18 06:06:21;;;;;;;1999.90;999.90;;;;;;;;;;4980369;28;20716;-72
2022/09/18 06:08:49;;;;;;;1999.90;999.90;;;;;;;;;;4998868;28;20226;-73
2022/09/18 06:11:17;;;;;;;1999.90;999.90;;;;;;;;;;4998010;28;20411;-73
2022/09/18 06:13:47;;;;;;;1999.90;999.90;;;;;;;;;;4999831;28;20451;-73
2022/09/18 06:16:17;;;;;;;1999.90;999.90;;;;;;;;;;4982285;28;20300;-73
2022/09/18 06:18:52;;;;;;;1999.90;999.90;;;;;;;;;;4998993;28;21040;-73
2022/09/18 06:21:21;;;;;;;1999.90;999.90;;;;;;;;;;4997851;28;20839;-72
2022/09/18 06:23:49;;;;;;;1999.90;999.90;;;;;;;;;;4997806;28;20250;-73
2022/09/18 06:26:28;;;;;;;1999.90;999.90;;;;;;;;;;5000006;28;20277;-73
2022/09/18 06:28:56;;;;;;;1999.90;999.90;;;;;;;;;;4983216;28;20281;-73
2022/09/18 06:31:29;;;;;;;1999.90;999.90;;;;;;;;;;5016826;28;20234;-73
2022/09/18 06:34:05;;;;;;;1999.90;999.90;;;;;;;;;;4999464;28;20257;-74
2022/09/18 06:36:33;;;;;;;1999.90;999.90;;;;;;;;;;5015876;28;20238;-73
2022/09/18 06:39:36;;;;;;;1999.90;999.90;;;;;;;;;;4997466;28;20241;-72
2022/09/18 06:42:04;;;;;;;1999.90;999.90;;;;;;;;;;5008612;28;20244;-73
2022/09/18 06:44:47;;;;;;;1999.90;999.90;;;;;;;;;;5014068;28;20225;-73
2022/09/18 06:47:17;;;;;;;1999.90;999.90;;;;;;;;;;4994735;28;20260;-73
2022/09/18 06:49:46;;;;;;;1999.90;999.90;;;;;;;;;;4994608;28;20231;-74
2022/09/18 06:52:16;;;;;;;1999.90;999.90;;;;;;;;;;5007780;28;20340;-74
2022/09/18 06:54:45;;;;;;;1999.90;999.90;;;;;;;;;;4993428;28;20230;-73
2022/09/18 06:57:27;;;;;;;1999.90;999.90;;;;;;;;;;4979909;28;22476;-73
2022/09/18 06:59:55;;;;;;;1999.90;999.90;;;;;;;;;;4996697;28;20756;-72
2022/09/18 07:02:25;;;;;;;1999.90;999.90;;;;;;;;;;4993332;28;20687;-73
2022/09/18 07:05:20;;;;;;;1999.90;999.90;;;;;;;;;;5011076;28;20241;-73
2022/09/18 07:07:48;;;;;;;1999.90;999.90;;;;;;;;;;4989499;28;20225;-73
2022/09/18 07:10:16;;;;;;;1999.90;999.90;;;;;;;;;;4994100;28;20273;-73
2022/09/18 07:12:47;;;;;;;1999.90;999.90;;;;;;;;;;4996960;28;20320;-73
2022/09/18 07:15:18;;;;;;;1999.90;999.90;;;;;;;;;;4995623;28;20349;-77
2022/09/18 07:17:47;;;;;;;1999.90;999.90;;;;;;;;;;4981521;28;21085;-73
2022/09/18 07:20:17;;;;;;;1999.90;999.90;;;;;;;;;;5001748;28;20234;-74
2022/09/18 07:22:52;;;;;;;1999.90;999.90;;;;;;;;;;5004404;28;20230;-73
2022/09/18 07:25:20;;;;;;;1999.90;999.90;;;;;;;;;;5003380;28;20768;-74
2022/09/18 07:27:48;;;;;;;1999.90;999.90;;;;;;;;;;5003342;28;20237;-75
2022/09/18 07:30:18;;;;;;;1999.90;999.90;;;;;;;;;;5019036;28;20229;-75
2022/09/18 07:32:47;;;;;;;1999.90;999.90;;;;;;;;;;5017383;28;20236;-73
2022/09/18 07:35:18;;;;;;;1999.90;999.90;;;;;;;;;;4988990;28;20325;-75
2022/09/18 07:37:47;;;;;;;1999.90;999.90;;;;;;;;;;5027114;28;20292;-77
2022/09/18 07:40:19;;;;;;;1999.90;999.90;;;;;;;;;;4990597;28;20623;-72
2022/09/18 07:43:07;;;;;;;1999.90;999.90;;;;;;;;;;5009017;28;20229;-83
2022/09/18 07:45:38;;;;;;;1999.90;999.90;;;;;;;;;;5012593;28;20316;-71
2022/09/18 07:48:08;;;;;;;1999.90;999.90;;;;;;;;;;4988319;28;20257;-74
2022/09/18 07:50:41;;;;;;;1999.90;999.90;;;;;;;;;;5021055;28;20748;-72
2022/09/18 07:53:19;;;;;;;1999.90;999.90;;;;;;;;;;5160482;27;20595;-71
2022/09/18 07:55:51;;;;;;;1999.90;999.90;;;;;;;;;;5162096;27;20224;-72
2022/09/18 07:58:19;;;;;;;1999.90;999.90;;;;;;;;;;5156296;27;20224;-72
2022/09/18 08:01:04;;;;;;;1999.90;999.90;;;;;;;;;;5159826;27;20708;-72
2022/09/18 08:03:37;;;;;;;1999.90;999.90;;;;;;;;;;5161918;27;20224;-73
2022/09/18 08:06:10;;;;;;;1999.90;999.90;;;;;;;;;;5164109;27;20241;-73
2022/09/18 08:08:59;;;;;;;1999.90;999.90;;;;;;;;;;5166682;27;20224;-72
2022/09/18 08:11:51;;;;;;;1999.90;999.90;;;;;;;;;;5152610;27;20742;-72
2022/09/18 08:14:39;;;;;;;1999.90;999.90;;;;;;;;;;5164120;27;20232;-72
2022/09/18 08:17:26;;;;;;;1999.90;999.90;;;;;;;;;;5165052;27;20221;-73
2022/09/18 08:20:13;;;;;;;1999.90;999.90;;;;;;;;;;5164001;27;20282;-72
2022/09/18 08:23:05;;;;;;;1999.90;999.90;;;;;;;;;;5162631;27;20285;-72
2022/09/18 08:25:37;;;;;;;1999.90;999.90;;;;;;;;;;5162652;27;20224;-71
2022/09/18 08:28:05;;;;;;;1999.90;999.90;;;;;;;;;;5147075;27;21239;-72
2022/09/18 08:30:43;;;;;;;1999.90;999.90;;;;;;;;;;5149449;27;20231;-73
2022/09/18 08:33:12;;;;;;;1999.90;999.90;;;;;;;;;;5157314;27;20256;-73
2022/09/18 08:35:41;;;;;;;1999.90;999.90;;;;;;;;;;5144794;27;20319;-71
2022/09/18 08:38:26;;;;;;;1999.90;999.90;;;;;;;;;;5160244;27;21092;-72
2022/09/18 08:41:28;;;;;;;1999.90;999.90;;;;;;;;;;5134109;27;20220;-72
2022/09/18 08:44:00;;;;;;;1999.90;999.90;;;;;;;;;;5165756;27;20260;-72
2022/09/18 08:46:31;;;;;;;1999.90;999.90;;;;;;;;;;5161962;27;20343;-73
2022/09/18 08:49:04;;;;;;;1999.90;999.90;;;;;;;;;;5145278;27;20282;-73
2022/09/18 08:51:34;;;;;;;1999.90;999.90;;;;;;;;;;5144018;27;20259;-72
2022/09/18 08:54:13;;;;;;;1999.90;999.90;;;;;;;;;;5137947;22;20263;-74
2022/09/18 08:57:22;;;;;;;1999.90;999.90;;;;;;;;;;5057708;28;20238;-73
2022/09/18 09:00:01;;;;;;;1999.90;999.90;;;;;;;;;;5076449;28;20681;-73
2022/09/18 09:02:37;;;;;;;1999.90;999.90;;;;;;;;;;5059672;28;20354;-72
2022/09/18 09:05:07;;;;;;;1999.90;999.90;;;;;;;;;;5071135;28;20229;-73
2022/09/18 09:07:41;;;;;;;1999.90;999.90;;;;;;;;;;5073265;28;20302;-74
2022/09/18 09:10:24;;;;;;;1999.90;999.90;;;;;;;;;;5072890;28;20228;-74
2022/09/18 09:12:58;;;;;;;1999.90;999.90;;;;;;;;;;5074561;28;20232;-74
2022/09/18 09:15:33;;;;;;;1999.90;999.90;;;;;;;;;;5088855;28;20235;-74
2022/09/18 09:18:14;;;;;;;1999.90;999.90;;;;;;;;;;5071895;28;20314;-74
2022/09/18 09:20:49;;;;;;;1999.90;999.90;;;;;;;;;;5056222;28;20282;-73
2022/09/18 09:23:22;;;;;;;1999.90;999.90;;;;;;;;;;5067601;28;20343;-74
2022/09/18 09:25:58;;;;;;;1999.90;999.90;;;;;;;;;;5057437;28;20255;-74
2022/09/18 09:28:43;;;;;;;1999.90;999.90;;;;;;;;;;5058422;28;20301;-75
2022/09/18 09:31:37;;;;;;;1999.90;999.90;;;;;;;;;;5035797;28;20228;-75
2022/09/18 09:34:24;;;;;;;1999.90;999.90;;;;;;;;;;5092206;28;20227;-75
2022/09/18 09:37:14;;;;;;;1999.90;999.90;;;;;;;;;;5070589;28;20235;-75
2022/09/18 09:39:43;;;;;;;1999.90;999.90;;;;;;;;;;5066303;28;20858;-74
2022/09/18 09:42:13;;;;;;;1999.90;999.90;;;;;;;;;;5052731;28;20720;-75
2022/09/18 09:44:46;;;;;;;1999.90;999.90;;;;;;;;;;5051904;28;20671;-74
2022/09/18 09:47:18;;;;;;;1999.90;999.90;;;;;;;;;;5049543;28;21424;-74
2022/09/18 09:49:50;;;;;;;1999.90;999.90;;;;;;;;;;5046276;28;20227;-74
2022/09/18 09:52:22;;;;;;;1999.90;999.90;;;;;;;;;;5044700;28;20330;-76
2022/09/18 09:54:55;;;;;;;1999.90;999.90;;;;;;;;;;5064304;28;20246;-74
2022/09/18 09:57:25;;;;;;;1999.90;999.90;;;;;;;;;;5080096;28;20742;-74
2022/09/18 09:59:59;;;;;;;1999.90;999.90;;;;;;;;;;5047456;28;20319;-75
2022/09/18 10:03:01;;;;;;;1999.90;999.90;;;;;;;;;;5069755;28;20227;-73
2022/09/18 10:05:38;;;;;;;1999.90;999.90;;;;;;;;;;5052334;28;20257;-74
2022/09/18 10:08:10;;;;;;;1999.90;999.90;;;;;;;;;;5047656;28;20227;-73
2022/09/18 10:10:40;;;;;;;1999.90;999.90;;;;;;;;;;5049057;28;20232;-73
2022/09/18 10:13:12;;;;;;;1999.90;999.90;;;;;;;;;;5049250;28;20235;-72
2022/09/18 10:15:43;;;;;;;1999.90;999.90;;;;;;;;;;5068569;28;20223;-74
2022/09/18 10:18:18;;;;;;;1999.90;999.90;;;;;;;;;;5061043;28;20222;-73
2022/09/18 10:20:48;;;;;;;1999.90;999.90;;;;;;;;;;5059040;28;20223;-74
2022/09/18 10:23:21;;;;;;;1999.90;999.90;;;;;;;;;;5054302;28;21000;-74
2022/09/18 10:25:55;;;;;;;1999.90;999.90;;;;;;;;;;5091076;28;20230;-74
2022/09/18 10:28:24;;;;;;;1999.90;999.90;;;;;;;;;;5045297;28;20231;-73
2022/09/18 10:30:56;;;;;;;1999.90;999.90;;;;;;;;;;5068805;28;20227;-74
2022/09/18 10:33:32;;;;;;;1999.90;999.90;;;;;;;;;;5047280;28;22965;-73
2022/09/18 10:36:02;;;;;;;1999.90;999.90;;;;;;;;;;5073183;28;20231;-73
2022/09/18 10:38:32;;;;;;;1999.90;999.90;;;;;;;;;;5072179;28;20228;-75
2022/09/18 10:41:27;;;;;;;1999.90;999.90;;;;;;;;;;5073259;28;20276;-74
2022/09/18 10:43:57;;;;;;;1999.90;999.90;;;;;;;;;;5062639;28;20265;-73
2022/09/18 10:46:29;;;;;;;1999.90;999.90;;;;;;;;;;5070904;28;20224;-74
2022/09/18 10:48:59;;;;;;;1999.90;999.90;;;;;;;;;;5067917;28;20267;-72
2022/09/18 10:51:28;;;;;;;1999.90;999.90;;;;;;;;;;5066204;28;20232;-75
2022/09/18 10:54:03;;;;;;;1999.90;999.90;;;;;;;;;;5067122;28;20239;-74
2022/09/18 10:56:47;;;;;;;1999.90;999.90;;;;;;;;;;5068463;28;20233;-73
2022/09/18 10:59:34;;;;;;;1999.90;999.90;;;;;;;;;;5038443;28;20980;-74
2022/09/18 11:02:04;;;;;;;1999.90;999.90;;;;;;;;;;5044898;28;20224;-73
2022/09/18 11:04:35;;;;;;;1999.90;999.90;;;;;;;;;;5064547;28;20338;-73
2022/09/18 11:07:06;;;;;;;1999.90;999.90;;;;;;;;;;5053713;28;20235;-74
2022/09/18 11:09:37;;;;;;;1999.90;999.90;;;;;;;;;;5065164;28;20224;-73
2022/09/18 11:12:13;;;;;;;1999.90;999.90;;;;;;;;;;5069294;28;20772;-73
2022/09/18 11:14:42;;;;;;;1999.90;999.90;;;;;;;;;;5046944;28;20304;-73
2022/09/18 11:17:25;;;;;;;1999.90;999.90;;;;;;;;;;5068139;28;20232;-74
2022/09/18 11:19:54;;;;;;;1999.90;999.90;;;;;;;;;;5063137;28;20246;-74
2022/09/18 11:22:31;;;;;;;1999.90;999.90;;;;;;;;;;5064598;28;20227;-74
2022/09/18 11:25:06;;;;;;;1999.90;999.90;;;;;;;;;;5046990;28;20223;-74
2022/09/18 11:27:44;;;;;;;1999.90;999.90;;;;;;;;;;5078566;28;20273;-72
2022/09/18 11:30:19;;;;;;;1999.90;999.90;;;;;;;;;;5041792;28;20232;-74
2022/09/18 11:32:51;;;;;;;1999.90;999.90;;;;;;;;;;5059529;28;20253;-74
2022/09/18 11:35:21;;;;;;;1999.90;999.90;;;;;;;;;;5043772;28;20236;-74
2022/09/18 11:37:51;;;;;;;1999.90;999.90;;;;;;;;;;5065636;28;20246;-74
2022/09/18 11:40:21;;;;;;;1999.90;999.90;;;;;;;;;;5073795;28;20830;-73
2022/09/18 11:42:51;;;;;;;1999.90;999.90;;;;;;;;;;5049707;28;20230;-74
2022/09/18 11:45:34;;;;;;;1999.90;999.90;;;;;;;;;;5066745;28;20239;-74
2022/09/18 11:48:07;;;;;;;1999.90;999.90;;;;;;;;;;5048816;28;20285;-76
2022/09/18 11:50:36;;;;;;;1999.90;999.90;;;;;;;;;;5068064;28;20228;-74
2022/09/18 11:53:10;;;;;;;1999.90;999.90;;;;;;;;;;5058437;28;21676;-73
2022/09/18 11:55:41;;;;;;;1999.90;999.90;;;;;;;;;;5055072;28;20336;-74
2022/09/18 11:58:12;;;;;;;1999.90;999.90;;;;;;;;;;5073610;28;20318;-74
2022/09/18 12:00:43;;;;;;;1999.90;999.90;;;;;;;;;;5064912;28;20235;-73
2022/09/18 12:03:17;;;;;;;1999.90;999.90;;;;;;;;;;5084019;28;20307;-74
2022/09/18 12:05:51;;;;;;;1999.90;999.90;;;;;;;;;;5071805;28;20232;-74
2022/09/18 12:08:26;;;;;;;1999.90;999.90;;;;;;;;;;5055970;28;20312;-73
2022/09/18 12:11:06;;;;;;;1999.90;999.90;;;;;;;;;;5066711;28;20334;-75
2022/09/18 12:13:40;;;;;;;1999.90;999.90;;;;;;;;;;5070123;28;20239;-74
2022/09/18 12:16:12;;;;;;;1999.90;999.90;;;;;;;;;;5053508;28;21112;-74
2022/09/18 12:18:47;;;;;;;1999.90;999.90;;;;;;;;;;5054390;28;20753;-75
2022/09/18 12:21:16;;;;;;;1999.90;999.90;;;;;;;;;;5075134;28;20621;-74
2022/09/18 12:23:44;;;;;;;1999.90;999.90;;;;;;;;;;5050644;28;20755;-75
2022/09/18 12:26:14;;;;;;;1999.90;999.90;;;;;;;;;;5062466;28;20232;-75
2022/09/18 12:29:05;;;;;;;1999.90;999.90;;;;;;;;;;5050886;28;20255;-73
2022/09/18 12:31:37;;;;;;;1999.90;999.90;;;;;;;;;;5067132;28;20292;-74
2022/09/18 12:34:11;;;;;;;1999.90;999.90;;;;;;;;;;5069141;28;20239;-75
2022/09/18 12:36:46;;;;;;;1999.90;999.90;;;;;;;;;;5071213;28;20283;-75
2022/09/18 12:39:20;;;;;;;1999.90;999.90;;;;;;;;;;5070222;28;20715;-75
2022/09/18 12:41:53;;;;;;;1999.90;999.90;;;;;;;;;;5076415;28;20729;-74
2022/09/18 12:44:28;;;;;;;1999.90;999.90;;;;;;;;;;5077936;28;20285;-74
2022/09/18 12:47:04;;;;;;;1999.90;999.90;;;;;;;;;;5077120;28;20237;-74
2022/09/18 12:49:40;;;;;;;1999.90;999.90;;;;;;;;;;5076575;28;20257;-74
2022/09/18 12:52:15;;;;;;;1999.90;999.90;;;;;;;;;;5076585;28;20220;-74
2022/09/18 12:54:51;;;;;;;1999.90;999.90;;;;;;;;;;5076036;28;20724;-74
2022/09/18 12:57:31;;;;;;;1999.90;999.90;;;;;;;;;;5078612;28;20286;-74
2022/09/18 13:00:02;;;;;;;1999.90;999.90;;;;;;;;;;5068918;28;20716;-74
2022/09/18 13:02:38;;;;;;;1999.90;999.90;;;;;;;;;;5075746;28;20611;-74
2022/09/18 13:05:12;;;;;;;1999.90;999.90;;;;;;;;;;5072549;28;20227;-75
2022/09/18 13:07:43;;;;;;;1999.90;999.90;;;;;;;;;;5055605;28;20236;-74
2022/09/18 13:10:13;;;;;;;1999.90;999.90;;;;;;;;;;5081187;28;20238;-74
2022/09/18 13:12:43;;;;;;;1999.90;999.90;;;;;;;;;;5075504;28;20236;-75
2022/09/18 13:15:14;;;;;;;1999.90;999.90;;;;;;;;;;5074518;28;21503;-74
2022/09/18 13:17:44;;;;;;;1999.90;999.90;;;;;;;;;;5077670;28;20358;-74
2022/09/18 13:20:16;;;;;;;1999.90;999.90;;;;;;;;;;5074849;28;20240;-73
2022/09/18 13:22:46;;;;;;;1999.90;999.90;;;;;;;;;;5072272;28;20235;-73
2022/09/18 13:25:24;;;;;;;1999.90;999.90;;;;;;;;;;5072605;28;20265;-74
2022/09/18 13:27:53;;;;;;;1999.90;999.90;;;;;;;;;;5057182;28;20232;-74
2022/09/18 13:30:25;;;;;;;1999.90;999.90;;;;;;;;;;5074599;28;20230;-74
2022/09/18 13:32:55;;;;;;;1999.90;999.90;;;;;;;;;;5070211;28;20223;-75
2022/09/18 13:35:26;;;;;;;1999.90;999.90;;;;;;;;;;5070640;28;20239;-73
2022/09/18 13:38:03;;;;;;;1999.90;999.90;;;;;;;;;;5068962;28;20228;-74
2022/09/18 13:40:34;;;;;;;1999.90;999.90;;;;;;;;;;5092511;28;20318;-74
2022/09/18 13:43:20;;;;;;;1999.90;999.90;;;;;;;;;;5089337;28;20264;-73
2022/09/18 13:45:48;;;;;;;1999.90;999.90;;;;;;;;;;5074364;28;20268;-72
2022/09/18 13:48:20;;;;;;;1999.90;999.90;;;;;;;;;;5088896;28;20319;-74
2022/09/18 13:50:52;;;;;;;1999.90;999.90;;;;;;;;;;5056584;28;20231;-73
2022/09/18 13:53:46;;;;;;;1999.90;999.90;;;;;;;;;;5074661;28;20224;-74
2022/09/18 13:56:15;;;;;;;1999.90;999.90;;;;;;;;;;5020159;28;20346;-73
2022/09/18 13:58:53;;;;;;;1999.90;999.90;;;;;;;;;;5070930;28;20219;-73
2022/09/18 14:01:57;;;;;;;1999.90;999.90;;;;;;;;;;5073764;28;21397;-74
2022/09/18 14:04:47;;;;;;;1999.90;999.90;;;;;;;;;;5078706;28;20234;-74
2022/09/18 14:07:30;;;;;;;1999.90;999.90;;;;;;;;;;5078239;28;20228;-74
2022/09/18 14:10:00;;;;;;;1999.90;999.90;;;;;;;;;;5097704;28;20239;-73
2022/09/18 14:12:33;;;;;;;1999.90;999.90;;;;;;;;;;5081637;28;20235;-74
2022/09/18 14:15:03;;;;;;;1999.90;999.90;;;;;;;;;;5076527;28;20239;-73